Time;durP1;ratioP1;P1;durP2;ratioP2;P2;SDS_P1;SDS_P2;PMS_P1;PMS_P2;Temp;Humidity;BMP_temperature;BMP_pressure;BME280_temperature;BME280_humidity;BME280_pressure;Samples;Min_cycle;Max_cycle;Signal;HPM_P1;HPM_P2
2022/08/19 00:01:30;;;;;;;2.40;2.20;;;;;;;24.29;45.61;101295.53;16139261;19;129251;-58
2022/08/19 00:06:52;;;;;;;2.85;2.00;;;;;;;24.27;45.54;101293.84;16143173;19;129618;-58
2022/08/19 00:12:14;;;;;;;2.97;2.10;;;;;;;24.26;45.59;101297.75;16142432;19;129637;-58
2022/08/19 00:17:36;;;;;;;3.10;2.35;;;;;;;24.26;45.85;101308.94;16144164;19;129311;-58
2022/08/19 00:23:03;;;;;;;3.13;2.30;;;;;;;24.26;45.55;101322.09;16138194;19;129691;-57
2022/08/19 00:28:24;;;;;;;2.72;2.05;;;;;;;24.25;45.53;101324.03;16141724;19;130410;-57
2022/08/19 00:33:47;;;;;;;3.22;2.00;;;;;;;24.26;45.57;101319.28;16141244;19;129853;-58
2022/08/19 00:39:10;;;;;;;3.92;2.40;;;;;;;24.24;45.58;101316.78;16138140;19;129825;-59
2022/08/19 00:44:32;;;;;;;4.80;2.40;;;;;;;24.23;45.64;101309.47;16139534;19;129252;-59
2022/08/19 00:49:56;;;;;;;2.38;2.00;;;;;;;24.22;45.55;101301.34;16139934;19;129423;-58
2022/08/19 00:55:27;;;;;;;2.30;2.10;;;;;;;24.22;45.60;101304.16;16136227;19;129406;-58
2022/08/19 01:00:49;;;;;;;2.30;2.10;;;;;;;24.21;45.53;101310.84;16134701;19;129334;-58
2022/08/19 01:06:11;;;;;;;3.25;2.38;;;;;;;24.21;45.53;101314.50;16138612;19;129820;-59
2022/08/19 01:11:43;;;;;;;3.50;2.28;;;;;;;24.20;45.41;101312.81;16137109;19;129138;-59
2022/08/19 01:17:08;;;;;;;3.00;2.13;;;;;;;24.19;45.53;101302.75;16136177;19;129166;-59
2022/08/19 01:22:54;;;;;;;3.42;2.25;;;;;;;24.19;45.37;101302.75;16134531;19;130660;-58
2022/08/19 01:28:20;;;;;;;2.67;2.08;;;;;;;24.17;45.50;101304.97;16135565;19;129674;-58
2022/08/19 01:34:01;;;;;;;2.88;2.20;;;;;;;24.17;45.55;101309.75;16139391;19;129559;-58
2022/08/19 01:39:25;;;;;;;3.55;2.50;;;;;;;24.17;45.52;101310.56;16136226;19;130233;-58
2022/08/19 01:44:46;;;;;;;2.80;2.50;;;;;;;24.17;45.55;101304.16;16137129;19;129967;-58
2022/08/19 01:50:10;;;;;;;2.63;2.20;;;;;;;24.16;45.65;101303.28;16136045;19;130194;-58
2022/08/19 01:55:33;;;;;;;3.47;2.58;;;;;;;24.16;45.76;101319.25;16132476;19;130702;-58
2022/08/19 02:00:55;;;;;;;2.72;2.33;;;;;;;24.16;45.46;101322.84;16133199;19;129256;-58
2022/08/19 02:06:16;;;;;;;2.22;1.98;;;;;;;24.14;45.50;101322.28;16134551;19;129635;-58
2022/08/19 02:11:38;;;;;;;2.55;2.35;;;;;;;24.16;45.65;101324.81;16132287;19;129485;-58
2022/08/19 02:17:00;;;;;;;3.25;2.58;;;;;;;24.14;45.49;101325.09;16144834;19;129407;-58
2022/08/19 02:22:25;;;;;;;3.05;2.53;;;;;;;24.14;45.59;101324.25;16146334;19;129498;-58
2022/08/19 02:27:46;;;;;;;2.60;2.40;;;;;;;24.13;45.16;101326.19;16150925;19;130380;-58
2022/08/19 02:33:10;;;;;;;3.97;2.50;;;;;;;24.12;45.13;101314.19;16149383;19;129537;-59
2022/08/19 02:38:32;;;;;;;3.15;2.85;;;;;;;24.12;45.55;101318.97;16149038;19;129201;-58
2022/08/19 02:43:56;;;;;;;3.67;2.70;;;;;;;24.11;45.54;101329.28;16149267;19;129909;-59
2022/08/19 02:49:37;;;;;;;3.83;2.60;;;;;;;24.10;45.23;101327.59;16148755;19;129691;-58
2022/08/19 02:54:59;;;;;;;4.13;2.95;;;;;;;24.11;45.59;101317.28;16144881;19;130485;-58
2022/08/19 03:00:21;;;;;;;3.38;2.20;;;;;;;24.10;45.78;101310.00;16144560;19;129449;-58
2022/08/19 03:05:44;;;;;;;3.13;2.55;;;;;;;24.09;45.75;101317.53;16146331;19;128856;-58
2022/08/19 03:11:23;;;;;;;3.38;2.42;;;;;;;24.09;45.41;101313.91;16145084;19;129346;-58
2022/08/19 03:16:48;;;;;;;2.35;2.15;;;;;;;24.08;45.53;101315.84;16146431;19;130930;-58
2022/08/19 03:22:10;;;;;;;2.50;2.30;;;;;;;24.08;45.55;101317.81;16143219;19;128890;-57
2022/08/19 03:27:32;;;;;;;2.50;2.30;;;;;;;24.07;45.55;101319.75;16144802;19;129724;-57
2022/08/19 03:32:55;;;;;;;2.63;2.40;;;;;;;24.06;45.53;101315.28;16143330;19;131112;-58
2022/08/19 03:38:17;;;;;;;2.67;2.22;;;;;;;24.06;45.42;101320.88;16137337;19;130124;-58
2022/08/19 03:43:40;;;;;;;2.90;2.42;;;;;;;24.06;45.82;101312.47;16140548;19;130327;-58
2022/08/19 03:49:07;;;;;;;3.58;3.25;;;;;;;24.05;45.29;101307.16;16143852;19;129977;-59
2022/08/19 03:54:28;;;;;;;3.80;3.00;;;;;;;24.05;45.38;101309.97;16141773;19;129768;-58
2022/08/19 03:59:50;;;;;;;3.42;2.70;;;;;;;24.04;45.67;101311.94;16143456;19;129373;-58
2022/08/19 04:05:13;;;;;;;2.63;2.42;;;;;;;24.04;45.39;101322.25;16143451;19;129028;-58
2022/08/19 04:10:37;;;;;;;3.47;2.60;;;;;;;24.04;45.44;101316.66;16142944;19;129305;-59
2022/08/19 04:15:58;;;;;;;2.67;2.47;;;;;;;24.02;45.32;101313.31;16136217;19;129098;-58
2022/08/19 04:21:24;;;;;;;2.83;2.28;;;;;;;24.02;45.35;101311.38;16140380;19;130630;-57
2022/08/19 04:26:46;;;;;;;2.60;2.40;;;;;;;24.01;45.19;101318.06;16143387;19;129634;-57
2022/08/19 04:32:08;;;;;;;2.67;2.47;;;;;;;24.01;45.37;101315.28;16140568;19;129969;-58
2022/08/19 04:37:33;;;;;;;3.75;2.80;;;;;;;24.01;45.32;101317.22;16137748;19;129576;-57
2022/08/19 04:42:56;;;;;;;2.63;2.42;;;;;;;24.00;45.27;101321.97;16137930;19;130122;-55
2022/08/19 04:48:25;;;;;;;3.50;2.55;;;;;;;23.99;45.41;101331.47;16141217;19;129413;-58
2022/08/19 04:53:48;;;;;;;2.30;2.13;;;;;;;24.00;45.32;101335.13;16138853;19;130397;-57
2022/08/19 04:59:10;;;;;;;2.70;2.50;;;;;;;23.99;45.45;101330.66;16140063;19;129107;-58
2022/08/19 05:04:32;;;;;;;2.58;2.33;;;;;;;23.97;45.72;101328.97;16139766;19;129252;-57
2022/08/19 05:09:55;;;;;;;4.07;2.50;;;;;;;23.97;45.48;101342.94;16140638;19;129508;-58
2022/08/19 05:15:19;;;;;;;3.05;2.17;;;;;;;23.97;45.49;101344.88;16134106;19;129697;-56
2022/08/19 05:26:21;;;;;;;2.80;2.60;;;;;;;23.96;45.66;101357.16;16140781;19;129440;-57
2022/08/19 05:31:44;;;;;;;2.85;2.17;;;;;;;23.94;45.10;101360.22;16137031;19;129476;-57
2022/08/19 05:37:08;;;;;;;2.47;2.28;;;;;;;23.96;45.50;101358.00;16138209;19;129390;-55
2022/08/19 05:42:30;;;;;;;2.53;2.33;;;;;;;23.94;45.60;101357.44;16135386;19;129143;-58
2022/08/19 05:47:52;;;;;;;3.30;2.28;;;;;;;23.94;45.21;101357.44;16142947;19;129486;-55
2022/08/19 05:53:16;;;;;;;3.08;2.40;;;;;;;23.93;45.50;101355.75;16150644;19;131455;-58
2022/08/19 05:58:38;;;;;;;3.10;2.20;;;;;;;23.93;45.07;101361.34;16154774;19;129400;-57
2022/08/19 06:04:00;;;;;;;2.85;2.30;;;;;;;23.92;45.52;101359.66;16153167;19;130245;-57
2022/08/19 06:09:23;;;;;;;2.45;2.25;;;;;;;23.94;45.33;101351.00;16158032;19;129470;-58
2022/08/19 06:14:44;;;;;;;2.67;2.47;;;;;;;23.94;45.34;101360.22;16156574;19;130262;-56
2022/08/19 06:20:13;;;;;;;2.67;2.47;;;;;;;24.04;45.08;101356.66;16148037;19;129419;-56
2022/08/19 06:25:35;;;;;;;2.78;2.35;;;;;;;24.11;45.25;101345.22;16150466;19;129165;-64
2022/08/19 06:30:57;;;;;;;3.35;2.72;;;;;;;24.11;45.01;101362.00;16150176;19;131472;-64
2022/08/19 06:36:33;;;;;;;5.43;2.88;;;;;;;24.11;45.24;101353.59;16147728;19;130141;-55
2022/08/19 06:41:59;;;;;;;4.20;2.90;;;;;;;24.09;45.13;101353.03;16146463;19;130114;-55
2022/08/19 06:47:21;;;;;;;3.28;2.90;;;;;;;24.10;44.93;101360.31;16142688;19;129494;-53
2022/08/19 06:52:46;;;;;;;5.47;3.67;;;;;;;24.09;45.13;101370.63;16143736;19;130069;-52
2022/08/19 06:58:09;;;;;;;9.23;3.80;;;;;;;24.08;45.20;101368.94;16142254;19;129460;-53
2022/08/19 07:03:33;;;;;;;7.35;4.07;;;;;;;24.09;45.33;101370.63;16131957;19;129738;-50
2022/08/19 07:08:58;;;;;;;11.18;3.47;;;;;;;24.09;45.37;101379.00;16139534;19;130113;-54
2022/08/19 07:14:24;;;;;;;5.55;3.40;;;;;;;24.10;45.28;101377.09;16142749;19;130454;-54
2022/08/19 07:19:46;;;;;;;7.95;3.33;;;;;;;24.09;45.25;101389.38;16145572;19;129070;-53
2022/08/19 07:25:09;;;;;;;8.68;3.85;;;;;;;24.09;45.08;101389.38;16147840;19;129145;-52
2022/08/19 07:30:31;;;;;;;15.32;4.00;;;;;;;24.09;45.69;101389.38;16139473;19;129639;-55
2022/08/19 07:35:55;;;;;;;7.43;3.47;;;;;;;24.10;45.15;101393.84;16140769;19;129626;-54
2022/08/19 07:41:20;;;;;;;7.97;3.45;;;;;;;24.10;45.06;101385.47;16140308;19;130421;-49
2022/08/19 07:46:45;;;;;;;9.00;3.83;;;;;;;24.09;45.63;101392.16;16141872;19;129446;-53
2022/08/19 07:52:11;;;;;;;18.20;4.03;;;;;;;24.09;45.17;101386.56;16138642;19;132676;-55
2022/08/19 07:57:33;;;;;;;9.18;3.95;;;;;;;24.12;45.46;101394.44;16140334;19;130830;-57
2022/08/19 08:02:55;;;;;;;8.25;3.63;;;;;;;24.14;45.44;101388.53;16140062;19;131195;-51
2022/08/19 08:14:05;;;;;;;17.70;4.88;;;;;;;24.18;45.37;101390.53;16134918;19;129299;-52
2022/08/19 08:19:50;;;;;;;9.57;4.32;;;;;;;24.20;45.38;101401.41;16142034;19;129958;-52
2022/08/19 08:25:15;;;;;;;9.98;4.78;;;;;;;24.19;45.12;101403.38;16138417;19;129905;-53
2022/08/19 08:30:39;;;;;;;9.23;4.40;;;;;;;24.20;45.40;101416.25;16135230;19;130985;-52
2022/08/19 08:36:05;;;;;;;10.90;4.90;;;;;;;24.22;45.62;101416.81;16130267;19;130664;-49
2022/08/19 08:41:53;;;;;;;13.07;4.40;;;;;;;24.20;45.41;101415.41;16137092;19;130398;-55
2022/08/19 08:47:20;;;;;;;17.90;6.95;;;;;;;24.19;45.41;101431.34;16135641;19;129322;-52
2022/08/19 08:52:47;;;;;;;14.45;6.32;;;;;;;24.17;45.50;101421.56;16137769;19;129716;-49
2022/08/19 08:58:16;;;;;;;11.77;6.60;;;;;;;24.15;45.55;101427.41;16134688;19;129373;-59
2022/08/19 09:03:41;;;;;;;12.02;6.10;;;;;;;24.15;45.65;101424.59;16135893;19;129545;-54
2022/08/19 09:09:13;;;;;;;;;;;;;;;24.12;45.80;101430.75;16141315;19;129441;-54
2022/08/19 09:14:41;;;;;;;80.72;9.25;;;;;;;24.15;45.49;101435.78;16133140;19;129022;-48
2022/08/19 09:20:19;;;;;;;19.45;6.57;;;;;;;24.13;45.56;101435.22;16138400;19;129963;-53
2022/08/19 09:25:41;;;;;;;17.55;6.50;;;;;;;24.13;45.79;101443.59;16134358;19;129990;-53
2022/08/19 09:31:03;;;;;;;14.95;5.72;;;;;;;24.09;45.92;101437.72;16138656;19;129361;-52
2022/08/19 09:36:29;;;;;;;11.30;5.97;;;;;;;24.10;45.96;101441.38;16139617;19;130523;-52
2022/08/19 09:41:55;;;;;;;14.77;5.40;;;;;;;24.08;45.96;101433.22;16137085;19;129424;-55
2022/08/19 09:47:18;;;;;;;7.78;5.38;;;;;;;24.07;46.17;101434.34;16136419;19;130262;-50
2022/08/19 09:52:41;;;;;;;10.25;5.20;;;;;;;24.06;46.24;101434.63;16137203;19;132139;-54
2022/08/19 09:58:17;;;;;;;11.02;4.32;;;;;;;24.05;46.60;101436.59;16138154;19;129936;-53
2022/08/19 10:03:49;;;;;;;7.40;4.43;;;;;;;24.04;46.38;101446.09;16132879;19;129479;-49
2022/08/19 10:09:11;;;;;;;12.32;4.70;;;;;;;24.01;46.27;101440.19;16136770;19;129473;-53
2022/08/19 10:14:33;;;;;;;6.75;4.22;;;;;;;24.00;46.53;101439.34;16130783;19;130488;-50
2022/08/19 10:19:55;;;;;;;11.13;3.90;;;;;;;24.02;46.06;101439.94;16135843;19;128776;-50
2022/08/19 10:25:17;;;;;;;8.65;4.43;;;;;;;24.01;46.53;101424.25;16129252;19;129349;-53
2022/08/19 10:30:40;;;;;;;7.05;3.75;;;;;;;24.00;46.67;101427.34;16134465;19;132056;-52
2022/08/19 10:36:05;;;;;;;12.90;3.85;;;;;;;24.03;46.52;101422.03;16139934;19;129385;-49
2022/08/19 10:41:32;;;;;;;8.60;3.25;;;;;;;24.06;46.22;101417.84;16148496;19;130404;-52
2022/08/19 10:46:54;;;;;;;6.78;2.83;;;;;;;24.11;46.12;101412.31;16149671;19;129427;-54
2022/08/19 10:52:35;;;;;;;9.20;3.00;;;;;;;24.14;46.39;101417.31;16148482;19;128930;-50
2022/08/19 10:57:59;;;;;;;6.68;3.08;;;;;;;24.17;46.39;101411.19;16144278;19;131093;-53
2022/08/19 11:03:25;;;;;;;7.13;2.85;;;;;;;24.20;46.18;101418.19;16145153;19;129235;-53
2022/08/19 11:08:46;;;;;;;6.13;3.13;;;;;;;24.21;46.66;101420.72;16147586;19;128934;-51
2022/08/19 11:14:14;;;;;;;4.93;2.63;;;;;;;24.22;46.26;101418.75;16146566;19;129431;-51
2022/08/19 11:19:36;;;;;;;6.03;2.70;;;;;;;24.21;46.68;101426.31;16148841;19;129336;-51
2022/08/19 11:24:57;;;;;;;6.07;2.83;;;;;;;24.21;46.36;101429.13;16139987;19;128930;-53
2022/08/19 11:30:19;;;;;;;7.57;3.10;;;;;;;24.22;46.20;101424.34;16147681;19;128991;-50
2022/08/19 11:35:41;;;;;;;6.20;2.53;;;;;;;24.25;46.23;101419.09;16145235;19;129050;-52
2022/08/19 11:41:09;;;;;;;9.05;2.90;;;;;;;24.29;46.35;101418.53;16147013;19;129704;-52
2022/08/19 11:46:31;;;;;;;5.43;3.03;;;;;;;24.29;46.39;101412.94;16146515;19;128905;-51
2022/08/19 11:51:53;;;;;;;3.28;2.85;;;;;;;24.28;46.51;101412.13;16144829;19;129657;-49
2022/08/19 11:57:16;;;;;;;5.65;3.08;;;;;;;24.30;46.20;101414.63;16144482;19;129422;-52
2022/08/19 12:02:39;;;;;;;4.60;3.20;;;;;;;24.32;46.11;101418.00;16139615;19;129395;-53
2022/08/19 12:08:00;;;;;;;4.40;2.85;;;;;;;24.33;46.53;101408.50;16146778;19;130470;-55
2022/08/19 12:13:23;;;;;;;5.60;2.95;;;;;;;24.36;46.11;101407.97;16139960;19;129487;-51
2022/08/19 12:18:46;;;;;;;5.70;3.17;;;;;;;24.37;46.25;101412.44;16143329;19;130056;-54
2022/08/19 12:24:08;;;;;;;5.40;3.20;;;;;;;24.37;46.19;101409.66;16141207;19;129198;-51
2022/08/19 12:29:30;;;;;;;4.38;3.28;;;;;;;24.39;46.57;101404.59;16143183;19;128937;-53
2022/08/19 12:34:51;;;;;;;4.32;3.67;;;;;;;24.41;46.27;101402.38;16144235;19;129931;-55
2022/08/19 12:40:15;;;;;;;7.40;4.18;;;;;;;24.42;46.52;101407.72;16140999;19;129086;-48
2022/08/19 12:45:37;;;;;;;8.20;4.32;;;;;;;24.43;46.58;101389.78;16139294;19;129834;-52
2022/08/19 12:51:07;;;;;;;9.00;4.35;;;;;;;24.47;46.55;101386.44;16139908;19;129045;-61
2022/08/19 12:56:29;;;;;;;5.80;4.03;;;;;;;24.49;46.42;101387.88;16134026;19;130646;-53
2022/08/19 13:01:51;;;;;;;9.00;4.25;;;;;;;24.52;46.85;101381.72;16138646;19;129932;-51
2022/08/19 13:07:13;;;;;;;8.38;4.50;;;;;;;24.58;46.93;101383.41;16141540;19;130231;-48
2022/08/19 13:12:35;;;;;;;5.75;3.85;;;;;;;24.63;47.01;101373.34;16139419;19;129475;-51
2022/08/19 13:17:57;;;;;;;6.93;3.88;;;;;;;24.67;46.86;101380.06;16140481;19;129195;-54
2022/08/19 13:23:19;;;;;;;9.75;3.78;;;;;;;24.70;46.76;101373.94;16138956;19;129208;-54
2022/08/19 13:34:34;;;;;;;7.47;3.60;;;;;;;24.76;46.92;101355.19;16139643;19;129005;-49
2022/08/19 13:39:56;;;;;;;4.95;2.88;;;;;;;24.75;46.56;101345.94;16139178;19;129304;-53
2022/08/19 13:45:22;;;;;;;4.75;2.92;;;;;;;24.78;46.74;101337.00;16135429;19;131916;-56
2022/08/19 13:50:46;;;;;;;6.45;2.88;;;;;;;24.81;46.61;101339.25;16137025;19;129322;-60
2022/08/19 13:56:12;;;;;;;4.47;2.43;;;;;;;24.82;46.50;101337.25;16132945;19;129411;-58
2022/08/19 14:01:34;;;;;;;5.32;2.42;;;;;;;24.83;46.46;101328.59;16137649;19;129172;-57
2022/08/19 14:06:56;;;;;;;4.57;2.15;;;;;;;24.85;46.62;101329.19;16136602;19;130378;-54
2022/08/19 14:12:22;;;;;;;2.80;1.80;;;;;;;24.84;46.58;101323.84;16145389;19;129307;-54
2022/08/19 14:17:50;;;;;;;4.85;1.95;;;;;;;24.83;46.53;101313.75;16149623;19;130809;-56
2022/08/19 14:23:13;;;;;;;3.25;1.88;;;;;;;24.81;46.76;101319.66;16146336;19;129265;-55
2022/08/19 14:28:35;;;;;;;3.88;1.60;;;;;;;24.79;46.34;101316.28;16150623;19;128984;-55
2022/08/19 14:33:57;;;;;;;3.38;1.40;;;;;;;24.79;46.54;101305.09;16149750;19;128877;-56
2022/08/19 14:39:19;;;;;;;4.30;1.63;;;;;;;24.78;46.13;101309.00;16141151;19;129646;-53
2022/08/19 14:44:42;;;;;;;2.38;1.63;;;;;;;24.78;46.14;101306.22;16145037;19;129844;-54
2022/08/19 14:50:06;;;;;;;2.90;1.48;;;;;;;24.77;46.48;101312.94;16147645;19;129761;-55
2022/08/19 14:55:31;;;;;;;3.20;1.83;;;;;;;24.76;46.37;101316.00;16144698;19;129829;-56
2022/08/19 15:00:53;;;;;;;3.55;1.50;;;;;;;24.72;46.46;101304.53;16149833;19;129910;-53
2022/08/19 15:06:15;;;;;;;4.10;1.48;;;;;;;24.72;46.58;101310.16;16143292;19;129556;-53
2022/08/19 15:11:38;;;;;;;3.08;1.55;;;;;;;24.70;46.53;101312.38;16150062;19;129783;-56
2022/08/19 15:17:04;;;;;;;3.00;1.60;;;;;;;24.68;46.60;101328.59;16141342;19;129828;-54
2022/08/19 15:22:26;;;;;;;1.85;1.40;;;;;;;24.67;46.54;101329.72;16146612;19;129038;-56
2022/08/19 15:27:47;;;;;;;2.72;1.80;;;;;;;24.64;46.58;101333.06;16148087;19;129479;-51
2022/08/19 15:33:13;;;;;;;3.95;1.50;;;;;;;24.60;46.47;101357.94;16144102;19;129465;-51
2022/08/19 15:38:35;;;;;;;8.13;1.80;;;;;;;24.56;46.45;101374.44;16144541;19;129204;-52
2022/08/19 15:44:10;;;;;;;2.95;1.75;;;;;;;24.55;46.51;101380.34;16141294;19;131617;-52
2022/08/19 15:49:32;;;;;;;4.72;1.65;;;;;;;24.52;46.86;101376.13;16142317;19;129512;-51
2022/08/19 15:54:54;;;;;;;4.07;1.70;;;;;;;24.50;46.66;101381.13;16137985;19;129579;-55
2022/08/19 16:11:38;;;;;;;3.22;1.48;;;;;;;24.58;47.22;101383.41;16142695;19;129154;-52
2022/08/19 16:17:01;;;;;;;7.38;1.48;;;;;;;24.61;47.01;101386.78;16138637;19;131122;-52
2022/08/19 16:22:28;;;;;;;4.22;1.55;;;;;;;24.63;47.21;101384.53;16143022;19;129989;-51
2022/08/19 16:27:51;;;;;;;10.15;1.52;;;;;;;24.63;46.97;101378.94;16142095;19;129948;-55
2022/08/19 16:33:29;;;;;;;4.90;1.30;;;;;;;24.63;47.14;101384.53;16137503;19;129794;-52
2022/08/19 16:38:52;;;;;;;6.97;1.42;;;;;;;24.61;47.19;101381.19;16141301;19;129501;-55
2022/08/19 16:44:14;;;;;;;5.20;1.70;;;;;;;24.60;47.19;101373.91;16139772;19;129306;-51
2022/08/19 16:49:36;;;;;;;5.38;1.15;;;;;;;24.56;47.30;101368.88;16141308;19;129250;-51
2022/08/19 16:55:15;;;;;;;8.48;1.50;;;;;;;24.55;47.21;101372.78;16136217;19;129016;-56
2022/08/19 17:00:37;;;;;;;2.47;1.13;;;;;;;24.55;47.35;101356.00;16141254;19;129330;-51
2022/08/19 17:06:02;;;;;;;2.88;1.05;;;;;;;24.53;47.48;101352.63;16136549;19;129043;-53
2022/08/19 17:11:25;;;;;;;1.57;0.87;;;;;;;24.55;47.15;101367.19;16141877;19;129074;-56
2022/08/19 17:16:48;;;;;;;5.28;1.02;;;;;;;24.54;47.24;101373.06;16134589;19;130391;-52
2022/08/19 17:22:10;;;;;;;5.50;1.17;;;;;;;24.52;47.22;101372.50;16138531;19;129550;-57
2022/08/19 17:27:32;;;;;;;6.53;0.90;;;;;;;24.52;47.13;101378.91;16136499;19;129270;-57
2022/08/19 17:32:54;;;;;;;3.15;1.00;;;;;;;24.53;47.24;101386.19;16138648;19;129529;-56
2022/08/19 17:38:19;;;;;;;3.38;1.20;;;;;;;24.51;47.12;101382.81;16136685;19;130061;-52
2022/08/19 17:43:41;;;;;;;2.90;1.00;;;;;;;24.50;47.32;101392.31;16137981;19;129697;-59
2022/08/19 17:49:05;;;;;;;3.60;0.88;;;;;;;24.49;47.21;101385.09;16139248;19;130470;-56
2022/08/19 17:54:27;;;;;;;4.28;0.93;;;;;;;24.48;47.29;101383.41;16135039;19;129071;-49
2022/08/19 17:59:54;;;;;;;5.25;1.10;;;;;;;24.48;47.48;101391.78;16138071;19;129687;-52
2022/08/19 18:05:31;;;;;;;3.55;1.17;;;;;;;24.49;47.44;101390.66;16134937;19;130472;-53
2022/08/19 18:10:54;;;;;;;3.30;1.00;;;;;;;24.46;47.54;101385.63;16136460;19;130395;-50
2022/08/19 18:16:17;;;;;;;2.75;0.93;;;;;;;24.45;47.51;101395.13;16133408;19;130113;-52
2022/08/19 18:21:39;;;;;;;4.22;1.20;;;;;;;24.44;47.16;101396.25;16136704;19;131617;-50
2022/08/19 18:27:01;;;;;;;8.13;1.10;;;;;;;24.42;47.30;101396.53;16130500;19;128906;-56
2022/08/19 18:32:24;;;;;;;5.85;0.93;;;;;;;24.40;47.53;101401.53;16129992;19;129301;-55
2022/08/19 18:37:46;;;;;;;5.65;1.30;;;;;;;24.39;47.68;101411.03;16135196;19;128912;-51
2022/08/19 18:54:22;;;;;;;7.38;1.40;;;;;;;24.34;47.67;101438.16;16129957;19;130301;-53
2022/08/19 18:59:46;;;;;;;28.67;1.98;;;;;;;24.31;47.64;101428.34;16145180;19;129370;-58
2022/08/19 19:05:12;;;;;;;5.80;1.40;;;;;;;24.32;47.79;101441.19;16144405;19;129900;-50
2022/08/19 19:10:35;;;;;;;9.18;1.55;;;;;;;24.33;47.74;101448.47;16142911;19;129799;-57
2022/08/19 19:15:58;;;;;;;19.63;1.70;;;;;;;24.31;48.47;101449.88;16142947;19;128992;-56
2022/08/19 19:21:22;;;;;;;17.10;1.60;;;;;;;24.30;48.45;101468.63;16144746;19;129968;-59
2022/08/19 19:26:44;;;;;;;9.88;1.30;;;;;;;24.29;48.34;101469.72;16140614;19;129490;-52
2022/08/19 19:32:10;;;;;;;11.80;1.40;;;;;;;24.30;48.64;101473.34;16147100;19;129559;-56
2022/08/19 19:37:32;;;;;;;9.77;1.52;;;;;;;24.32;48.59;101471.97;16144913;19;129844;-57
2022/08/19 19:42:54;;;;;;;9.40;1.90;;;;;;;24.34;48.48;101464.16;16144999;19;129516;-56
2022/08/19 19:48:16;;;;;;;14.77;1.85;;;;;;;24.36;48.36;101463.88;16144765;19;129617;-57
2022/08/19 19:53:38;;;;;;;18.67;1.80;;;;;;;24.34;48.79;101474.50;16142528;19;130000;-56
2022/08/19 19:59:02;;;;;;;11.95;1.63;;;;;;;24.35;49.00;101462.22;16144822;19;129923;-54
2022/08/19 20:04:25;;;;;;;9.38;1.50;;;;;;;24.38;49.38;101467.22;16142713;19;129034;-57
2022/08/19 20:09:46;;;;;;;12.75;1.75;;;;;;;24.38;49.38;101470.03;16144930;19;129310;-70
2022/08/19 20:15:21;;;;;;;12.63;1.70;;;;;;;24.38;49.44;101467.22;16140885;19;129857;-70
2022/08/19 20:20:45;;;;;;;7.45;1.92;;;;;;;24.39;49.32;101475.38;16139554;19;128908;-62
2022/08/19 20:26:06;;;;;;;36.83;3.10;;;;;;;24.41;49.49;101478.72;16136285;19;129145;-63
2022/08/19 20:31:48;;;;;;;33.83;3.47;;;;;;;24.42;49.88;101473.97;16141992;19;129706;-64
2022/08/19 20:37:20;;;;;;;32.17;2.65;;;;;;;24.44;49.95;101468.94;16142996;19;129803;-61
2022/08/19 20:42:42;;;;;;;37.00;2.88;;;;;;;24.46;50.23;101480.72;16141128;19;129128;-64
2022/08/19 20:48:06;;;;;;;25.20;2.65;;;;;;;24.48;50.20;101486.03;16135614;19;130098;-66
2022/08/19 20:53:28;;;;;;;30.38;3.05;;;;;;;24.48;50.17;101488.81;16138370;19;130354;-58
2022/08/19 20:58:49;;;;;;;26.02;3.25;;;;;;;24.49;50.09;101485.75;16139486;19;129870;-55
2022/08/19 21:04:20;;;;;;;30.63;3.65;;;;;;;24.51;50.35;101483.50;16139262;19;129216;-54
2022/08/19 21:09:42;;;;;;;29.65;3.28;;;;;;;24.50;50.42;101481.81;16141578;19;129526;-52
2022/08/19 21:15:05;;;;;;;36.85;3.53;;;;;;;24.51;50.36;101493.88;16137499;19;128939;-57
2022/08/19 21:20:27;;;;;;;15.82;3.30;;;;;;;24.52;50.30;101489.97;16136351;19;129530;-59
2022/08/19 21:25:54;;;;;;;28.63;3.08;;;;;;;24.50;50.43;101481.81;16133375;19;129826;-59
2022/08/19 21:31:16;;;;;;;32.45;3.28;;;;;;;24.47;50.11;101482.41;16134069;19;130744;-61
2022/08/19 21:36:38;;;;;;;16.27;3.13;;;;;;;24.47;50.40;101487.13;16136761;19;130544;-61
2022/08/19 21:42:00;;;;;;;26.50;3.40;;;;;;;24.44;50.12;101477.34;16134938;19;129216;-62
2022/08/19 21:47:21;;;;;;;19.92;3.22;;;;;;;24.42;50.14;101490.75;16129519;19;128897;-60
2022/08/19 21:52:45;;;;;;;13.45;2.85;;;;;;;24.41;50.07;101497.44;16134051;19;131098;-61
2022/08/19 21:58:06;;;;;;;20.75;3.50;;;;;;;24.38;49.86;101486.81;16137454;19;128795;-60
2022/08/19 22:03:28;;;;;;;22.10;2.90;;;;;;;24.36;49.92;101491.84;16136134;19;129886;-61
2022/08/19 22:08:53;;;;;;;14.20;2.92;;;;;;;24.35;49.62;101501.34;16137337;19;129295;-62
2022/08/19 22:14:14;;;;;;;15.33;2.60;;;;;;;24.33;50.05;101501.59;16133644;19;129011;-61
2022/08/19 22:19:36;;;;;;;14.15;3.05;;;;;;;24.32;50.10;101501.88;16133879;19;130142;-61
2022/08/19 22:25:10;;;;;;;12.10;2.50;;;;;;;24.31;49.79;101497.41;16133059;19;129432;-61
2022/08/19 22:30:33;;;;;;;13.60;3.08;;;;;;;24.28;49.76;101496.00;16138890;19;129960;-61
2022/08/19 22:35:55;;;;;;;14.20;2.83;;;;;;;24.27;49.68;101492.34;16146491;19;130742;-60
2022/08/19 22:41:17;;;;;;;11.68;3.10;;;;;;;24.26;49.66;101499.06;16151297;19;129609;-60
2022/08/19 22:46:38;;;;;;;8.30;2.33;;;;;;;24.26;49.79;101492.63;16146807;19;129598;-62
2022/08/19 22:52:18;;;;;;;11.20;2.78;;;;;;;24.25;49.75;101496.53;16150761;19;131590;-59
2022/08/19 22:57:40;;;;;;;7.38;2.00;;;;;;;24.24;49.51;101495.72;16148231;19;129453;-61
2022/08/19 23:03:02;;;;;;;12.05;2.28;;;;;;;24.23;49.46;101496.78;16148892;19;131382;-62
2022/08/19 23:08:24;;;;;;;13.63;2.50;;;;;;;24.22;49.68;101488.66;16142805;19;129801;-69
2022/08/19 23:13:45;;;;;;;14.88;2.63;;;;;;;24.21;49.28;101489.75;16149409;19;129568;-72
2022/08/19 23:19:07;;;;;;;8.70;2.55;;;;;;;24.20;49.34;101491.72;16150293;19;128908;-70
2022/08/19 23:24:29;;;;;;;10.98;2.10;;;;;;;24.20;49.56;101482.50;16149164;19;129271;-68
2022/08/19 23:35:35;;;;;;;8.93;2.58;;;;;;;24.18;49.09;101490.34;16146295;19;129348;-71
2022/08/19 23:40:59;;;;;;;9.45;2.05;;;;;;;24.18;49.12;101493.13;16145518;19;129475;-64
2022/08/19 23:46:21;;;;;;;7.97;2.00;;;;;;;24.17;49.11;101489.47;16144719;19;129540;-68
2022/08/19 23:51:48;;;;;;;6.03;1.90;;;;;;;24.16;49.11;101493.38;16144385;19;129011;-68
2022/08/19 23:57:11;;;;;;;5.15;2.13;;;;;;;24.17;49.13;101489.47;16148999;19;130525;-68
